This is the latest recevied weather packets stored in our database for station/object DG8SF-13. If no packets are shown the sender has not sent any weather packets the latest 10 day(s).
| Time | Temp. | Humidity | Pressure | Rain* | Wind** | Luminosity | Snow |
|---|---|---|---|---|---|---|---|
| 1777712781 | 21.11° C | 41% | 1022.2 hPa | 0 mm | - | - | - |
| 1777712466 | 20° C | 43% | 1022.3 hPa | 0 mm | - | - | - |
| 1777712167 | 19.44° C | 44% | 1022.3 hPa | 0 mm | - | - | - |
| 1777711853 | 20° C | 43% | 1022.3 hPa | 0 mm | - | - | - |
| 1777711544 | 20.56° C | 41% | 1022.3 hPa | 0 mm | - | - | - |
| 1777711232 | 20.56° C | 39% | 1022.3 hPa | 0 mm | - | - | - |
| 1777710930 | 20.56° C | 40% | 1022.4 hPa | 0 mm | - | - | - |
| 1777710618 | 20.56° C | 41% | 1022.4 hPa | 0 mm | - | - | - |
| 1777710327 | 19.44° C | 44% | 1022.4 hPa | 0 mm | - | - | - |
| 1777710006 | 18.33° C | 44% | 1022.4 hPa | 0 mm | - | - | - |
| 1777709695 | 19.44° C | 44% | 1022.4 hPa | 0 mm | - | - | - |
| 1777709383 | 18.33° C | 46% | 1022.4 hPa | 0 mm | - | - | - |
| 1777709084 | 18.33° C | 44% | 1022.4 hPa | 0 mm | - | - | - |
| 1777708770 | 19.44° C | 43% | 1022.5 hPa | 0 mm | - | - | - |
| 1777708471 | 17.78° C | 45% | 1022.6 hPa | 0 mm | - | - | - |
| 1777708159 | 17.78° C | 45% | 1022.7 hPa | 0 mm | - | - | - |
| 1777707846 | 16.11° C | 47% | 1022.6 hPa | 0 mm | - | - | - |
| 1777707534 | 17.78° C | 44% | 1022.7 hPa | 0 mm | - | - | - |
| 1777707236 | 17.22° C | 45% | 1022.7 hPa | 0 mm | - | - | - |
| 1777706924 | 16.67° C | 47% | 1022.5 hPa | 0 mm | - | - | - |
| 1777706613 | 16.11° C | 48% | 1022.6 hPa | 0 mm | - | - | - |
| 1777706299 | 15° C | 50% | 1022.7 hPa | 0 mm | - | - | - |
| 1777706000 | 15° C | 49% | 1022.7 hPa | 0 mm | - | - | - |
| 1777705687 | 16.67° C | 45% | 1022.7 hPa | 0 mm | - | - | - |
| 1777705376 | 17.22° C | 45% | 1022.8 hPa | 0 mm | - | - | - |
* Rain latest hour (hover to see other rain measurements)
** Current wind speed in m/s (hover to see current wind gust speed)